Mattersburg, Austria
Current Conditions -  °F | °C
As of 10:50 AM on Thursday 23 Oct 2014 (Local Time) from LOWW Reporting Station
Broken Clouds Broken Clouds  
Wind Chill: 43°   Ceiling: 1400
Heat Index: 48°   Visibility: 6mi
Dew Point: 45°   Wind: 14mph
Humidity: 87%   Direction: 350°N
Pressure: 29.83"   Gusts: NA
Location:  47.73°N, 16.39°E
Report Text: LOWW 230850Z 35012KT 9999 BKN014 BKN020 09/07 Q1010 BECMG SCT014 BKN020
Loading
Personal Weather Stations






























Interactive Weather Map
Tropical Storm Tracking
New forecast layout! Learn more

10-Day Weather Forecast

Advertisements
Track Severe Weather on mobile